Time;durP1;ratioP1;P1;durP2;ratioP2;P2;SDS_P1;SDS_P2;PMS_P1;PMS_P2;Temp;Humidity;BMP_temperature;BMP_pressure;BME280_temperature;BME280_humidity;BME280_pressure;Samples;Min_cycle;Max_cycle;Signal;HPM_P1;HPM_P2
2024/02/01 00:01:03;;;;;;;26.10;15.00;;;;;;;-147.86;100.00;-10980.81;105037;1270;63574;-56
2024/02/01 00:03:31;;;;;;;28.60;15.30;;;;;;;-147.86;100.00;-10255.92;105511;1257;71471;-56
2024/02/01 00:05:59;;;;;;;30.00;15.50;;;;;;;-147.86;100.00;-9533.60;105731;1257;214452;-55
2024/02/01 00:08:27;;;;;;;26.10;15.20;;;;;;;-147.86;100.00;-8879.93;105949;1257;59250;-57
2024/02/01 00:10:56;;;;;;;24.70;13.90;;;;;;;-147.86;100.00;-8178.22;106039;1255;69944;-56
2024/02/01 00:13:24;;;;;;;27.00;15.10;;;;;;;-147.86;100.00;-7504.57;105981;1257;63097;-55
2024/02/01 00:15:53;;;;;;;28.60;15.60;;;;;;;-147.86;100.00;-6475.58;105990;1252;70792;-55
2024/02/01 00:18:21;;;;;;;32.40;15.70;;;;;;;-147.86;100.00;-5663.59;105925;1254;59688;-54
2024/02/01 00:51:31;;;;;;;32.40;15.20;;;;;;;-147.86;100.00;-4902.92;102619;1294;599654;-51
2024/02/01 00:54:00;;;;;;;28.60;15.30;;;;;;;-147.86;100.00;-10766.81;104874;1266;59344;-56
2024/02/01 00:56:28;;;;;;;26.30;14.50;;;;;;;-147.86;100.00;-10270.24;104822;1266;60147;-57
2024/02/01 00:58:56;;;;;;;31.00;14.90;;;;;;;-147.86;100.00;-10307.72;104883;1265;70957;-57
2024/02/01 01:01:24;;;;;;;27.40;14.60;;;;;;;-147.86;100.00;-10633.29;104877;1267;63495;-60
2024/02/01 01:03:54;;;;;;;28.20;14.90;;;;;;;-147.86;100.00;-10854.57;105221;1269;71439;-57
2024/02/01 01:06:22;;;;;;;30.20;14.10;;;;;;;-147.86;100.00;-11012.49;105115;1261;280955;-57
2024/02/01 01:08:49;;;;;;;31.10;15.30;;;;;;;-147.86;100.00;-10981.61;105237;1266;59342;-56
2024/02/01 01:11:17;;;;;;;28.70;14.90;;;;;;;-147.86;100.00;-11048.80;105204;1260;72182;-57
2024/02/01 01:51:00;;;;;;;28.40;14.30;;;;;;;-147.86;100.00;-8673.02;102678;1292;601061;-56
2024/02/01 01:53:29;;;;;;;34.70;15.50;;;;;;;-147.86;100.00;-14291.36;104898;1270;59306;-55
2024/02/01 01:55:57;;;;;;;27.90;15.20;;;;;;;-147.86;100.00;-13213.30;104830;1266;59268;-56
2024/02/01 01:58:27;;;;;;;29.50;14.80;;;;;;;-147.86;100.00;-12908.04;105080;1268;69846;-56
2024/02/01 02:00:55;;;;;;;30.10;14.80;;;;;;;-147.86;100.00;-12894.91;105144;1269;64453;-53
2024/02/01 02:03:27;;;;;;;25.80;14.70;;;;;;;-147.86;100.00;-12813.09;105039;1263;71372;-57
2024/02/01 02:05:55;;;;;;;25.00;13.60;;;;;;;-147.86;100.00;-12950.08;105122;1260;59279;-53
2024/02/01 02:08:23;;;;;;;31.70;15.40;;;;;;;-147.86;100.00;-12602.34;105278;1265;59331;-55
2024/02/01 02:10:51;;;;;;;28.60;15.00;;;;;;;-147.86;100.00;-12395.06;105221;1259;72148;-55
2024/02/01 02:13:19;;;;;;;27.10;15.40;;;;;;;-147.86;100.00;-12005.15;105247;1259;64602;-55
2024/02/01 02:15:46;;;;;;;25.90;14.90;;;;;;;-147.86;100.00;-11382.39;105192;1260;71427;-57
2024/02/01 02:18:15;;;;;;;30.00;14.90;;;;;;;-147.86;100.00;-10915.16;105231;1262;61065;-55
2024/02/01 02:20:46;;;;;;;30.10;15.00;;;;;;;-147.86;100.00;-10436.67;105259;1260;59631;-55
2024/02/01 02:23:14;;;;;;;27.40;15.20;;;;;;;-147.86;100.00;-10173.24;105244;1260;71767;-58
2024/02/01 02:25:42;;;;;;;29.00;15.50;;;;;;;-147.86;100.00;-9542.50;105224;1259;62574;-56
2024/02/01 02:28:09;;;;;;;30.30;16.00;;;;;;;-147.86;100.00;-9044.13;105236;1260;71390;-56
2024/02/01 02:30:38;;;;;;;33.30;15.30;;;;;;;-147.86;100.00;-8663.57;105243;1260;59693;-57
2024/02/01 02:33:06;;;;;;;32.70;16.20;;;;;;;-147.86;100.00;-8456.84;105259;1261;60005;-58
2024/02/01 02:35:34;;;;;;;30.50;16.90;;;;;;;-147.86;100.00;-8057.66;105269;1259;71840;-55
2024/02/01 02:38:01;;;;;;;30.00;15.70;;;;;;;-147.86;100.00;-7621.73;105216;1262;64352;-55
2024/02/01 02:40:29;;;;;;;28.10;15.40;;;;;;;-147.86;100.00;-7156.36;105220;1260;72665;-57
2024/02/01 02:42:57;;;;;;;32.10;15.50;;;;;;;-147.86;100.00;-6730.76;105231;1266;59748;-56
2024/02/01 02:45:24;;;;;;;32.50;16.30;;;;;;;-147.86;100.00;-6354.60;105219;1265;59589;-58
2024/02/01 02:47:53;;;;;;;32.50;15.00;;;;;;;-147.86;100.00;-6089.37;105133;1261;71807;-57
2024/02/01 02:50:21;;;;;;;33.60;15.90;;;;;;;-147.86;100.00;-5913.03;105158;1263;63333;-58
2024/02/01 02:52:49;;;;;;;32.80;15.90;;;;;;;-147.86;100.00;-5347.70;104977;1262;72848;-54
2024/02/01 02:55:16;;;;;;;26.90;14.60;;;;;;;-147.86;100.00;-4898.32;105122;1263;59817;-56
2024/02/01 02:57:44;;;;;;;30.20;15.70;;;;;;;-147.86;100.00;-4638.40;105157;1267;59611;-57
2024/02/01 03:00:18;;;;;;;34.20;17.40;;;;;;;-147.86;100.00;-4364.55;105138;1262;73034;-56
2024/02/01 03:02:50;;;;;;;35.40;16.30;;;;;;;-147.86;100.00;-4503.67;105120;1263;63106;-53
2024/02/01 03:05:18;;;;;;;34.00;17.10;;;;;;;-147.86;100.00;-3658.05;105186;1262;71466;-56
2024/02/01 03:50:13;;;;;;;32.40;17.20;;;;;;;-147.86;100.00;8202.67;102676;1291;600432;-56
2024/02/01 03:52:43;;;;;;;35.40;17.00;;;;;;;-147.86;100.00;5018.71;104876;1270;59251;-53
2024/02/01 03:55:17;;;;;;;35.20;18.50;;;;;;;-147.86;100.00;7023.01;104847;1272;59239;-57
2024/02/01 03:57:46;;;;;;;36.10;17.70;;;;;;;-147.86;100.00;8250.40;104871;1272;72234;-53
2024/02/01 04:00:24;;;;;;;38.60;16.90;;;;;;;-147.86;100.00;9671.31;104841;1266;64285;-60
2024/02/01 04:02:54;;;;;;;35.60;17.90;;;;;;;-147.86;100.00;9722.85;104651;1270;328715;-54
2024/02/01 04:05:23;;;;;;;38.20;17.20;;;;;;;-147.86;100.00;11007.45;105196;1267;59340;-52
2024/02/01 04:07:51;;;;;;;32.20;17.80;;;;;;;-147.86;100.00;11651.42;105218;1267;59953;-59
2024/02/01 04:10:19;;;;;;;34.90;17.10;;;;;;;-147.86;100.00;12322.65;105229;1268;71115;-58
2024/02/01 04:12:47;;;;;;;31.80;18.50;;;;;;;-147.86;100.00;12715.05;105200;1264;62958;-55
2024/02/01 04:15:15;;;;;;;34.80;18.20;;;;;;;-147.86;100.00;13010.74;105181;1263;72681;-55
2024/02/01 04:17:43;;;;;;;32.30;17.10;;;;;;;-147.86;100.00;13287.39;105205;1267;60071;-57
2024/02/01 04:20:13;;;;;;;34.70;18.30;;;;;;;-147.86;100.00;13558.26;105159;1268;59654;-55
2024/02/01 04:22:41;;;;;;;34.70;18.90;;;;;;;-147.86;100.00;13681.91;105598;1260;71705;-58
2024/02/01 04:25:09;;;;;;;35.90;18.30;;;;;;;-147.86;100.00;14121.43;105620;1262;63095;-58
2024/02/01 04:27:37;;;;;;;34.70;18.50;;;;;;;-147.86;100.00;14466.98;105578;1260;72623;-56
2024/02/01 04:30:06;;;;;;;32.00;17.80;;;;;;;-147.86;100.00;14711.09;105609;1262;59750;-60
2024/02/01 04:32:34;;;;;;;32.80;17.60;;;;;;;-147.86;100.00;14746.50;105607;1260;59693;-59
2024/02/01 04:35:06;;;;;;;34.00;18.00;;;;;;;-147.86;100.00;14981.67;105630;1258;71604;-59
2024/02/01 04:37:34;;;;;;;35.40;17.50;;;;;;;-147.86;100.00;14790.91;105626;1257;63124;-57
2024/02/01 04:40:03;;;;;;;39.60;19.10;;;;;;;-147.86;100.00;15232.02;105533;1260;72670;-56
2024/02/01 04:42:31;;;;;;;40.30;20.60;;;;;;;-147.86;100.00;15203.31;105603;1260;59753;-59
2024/02/01 04:45:04;;;;;;;35.70;20.30;;;;;;;-147.86;100.00;15458.30;105609;1261;59721;-57
2024/02/01 04:47:32;;;;;;;36.10;18.70;;;;;;;-147.86;100.00;14852.39;105605;1256;71605;-56
2024/02/01 04:50:01;;;;;;;35.30;19.10;;;;;;;-147.86;100.00;15176.04;105629;1257;63204;-56
2024/02/01 04:52:29;;;;;;;37.40;19.00;;;;;;;-147.86;100.00;15038.81;105550;1261;72620;-53
2024/02/01 04:55:03;;;;;;;38.60;19.90;;;;;;;-147.86;100.00;14922.17;105623;1261;59734;-56
2024/02/01 04:57:31;;;;;;;35.80;19.90;;;;;;;-147.86;100.00;14119.26;105578;1258;59563;-56
2024/02/01 04:59:59;;;;;;;34.90;19.50;;;;;;;-147.86;100.00;14416.80;105597;1261;72972;-58
2024/02/01 05:02:26;;;;;;;32.50;18.90;;;;;;;-147.86;100.00;14282.70;105570;1261;63121;-59
2024/02/01 05:04:54;;;;;;;36.80;19.70;;;;;;;-147.86;100.00;14346.85;105553;1258;71687;-57
2024/02/01 05:07:22;;;;;;;35.40;19.70;;;;;;;-147.86;100.00;14503.11;105581;1263;59766;-57
2024/02/01 05:09:49;;;;;;;37.00;20.40;;;;;;;-147.86;100.00;14436.24;105560;1262;59660;-56
2024/02/01 05:12:19;;;;;;;42.40;21.00;;;;;;;-147.86;100.00;14355.40;105582;1263;73012;-57
2024/02/01 05:14:47;;;;;;;41.50;22.50;;;;;;;-147.86;100.00;14360.53;105622;1268;63134;-57
2024/02/01 05:17:14;;;;;;;41.00;20.30;;;;;;;-147.86;100.00;14919.88;105563;1260;71420;-59
2024/02/01 05:19:43;;;;;;;39.20;20.20;;;;;;;-147.86;100.00;15510.83;105523;1261;61033;-57
2024/02/01 05:22:10;;;;;;;41.20;20.80;;;;;;;-147.86;100.00;16176.58;105616;1260;59724;-56
2024/02/01 05:24:38;;;;;;;38.60;21.00;;;;;;;-147.86;100.00;16890.21;105537;1270;73207;-57
2024/02/01 05:27:09;;;;;;;37.80;20.80;;;;;;;-147.86;100.00;17442.54;105572;1257;63305;-59
2024/02/01 05:29:39;;;;;;;36.40;20.00;;;;;;;-147.86;100.00;17565.18;105481;1263;71446;-57
2024/02/01 05:32:06;;;;;;;42.30;21.40;;;;;;;-147.86;100.00;17911.38;105593;1258;60852;-59
2024/02/01 05:34:35;;;;;;;39.20;19.80;;;;;;;-147.86;100.00;18149.78;105574;1262;59730;-56
2024/02/01 05:37:03;;;;;;;39.30;19.70;;;;;;;-147.86;100.00;18089.50;105599;1263;72991;-59
2024/02/01 05:39:31;;;;;;;39.20;20.40;;;;;;;-147.86;100.00;18231.48;105554;1263;62241;-56
2024/02/01 05:42:06;;;;;;;35.80;20.00;;;;;;;-147.86;100.00;18482.89;105609;1259;72706;-54
2024/02/01 05:44:35;;;;;;;;;;;;;;;-147.86;100.00;18399.13;105636;1263;59844;-56
2024/02/01 05:47:05;;;;;;;35.80;21.40;;;;;;;-147.86;100.00;19484.61;105589;1263;59705;-60
2024/02/01 06:07:49;;;;;;;;;;;;;;;-147.86;100.00;3763.41;103333;1287;600795;-59
2024/02/01 06:10:17;;;;;;;39.20;18.50;;;;;;;-147.86;100.00;-9993.60;104897;1267;59354;-54
2024/02/01 06:12:44;;;;;;;37.40;19.60;;;;;;;-147.86;100.00;-10988.78;104804;1271;59257;-57
2024/02/01 06:15:12;;;;;;;39.60;19.40;;;;;;;-147.86;100.00;-5719.00;104780;1275;71124;-56
2024/02/01 06:17:40;;;;;;;38.10;20.40;;;;;;;-147.86;100.00;-987.80;104816;1273;63113;-58
2024/02/01 06:20:10;;;;;;;38.10;20.10;;;;;;;-147.86;100.00;2659.72;104864;1267;71419;-55
2024/02/01 06:22:37;;;;;;;40.80;20.00;;;;;;;-147.86;100.00;5438.12;104968;1267;228667;-56
2024/02/01 06:25:06;;;;;;;36.80;20.00;;;;;;;-147.86;100.00;7880.45;105081;1270;59350;-58
2024/02/01 06:27:33;;;;;;;39.20;20.00;;;;;;;-147.86;100.00;9868.18;105110;1263;70858;-57
2024/02/01 06:30:01;;;;;;;43.10;21.70;;;;;;;-147.86;100.00;11668.91;105101;1270;63196;-57
2024/02/01 06:32:29;;;;;;;43.50;21.50;;;;;;;-147.86;100.00;13222.95;105053;1263;72562;-58
2024/02/01 06:35:06;;;;;;;37.10;20.40;;;;;;;-147.86;100.00;14608.11;105101;1263;63131;-55
2024/02/01 06:37:39;;;;;;;34.50;19.60;;;;;;;-147.86;100.00;14918.67;105131;1264;62035;-54
2024/02/01 06:40:12;;;;;;;40.30;20.40;;;;;;;-147.86;100.00;15942.25;105139;1269;72846;-59
2024/02/01 06:45:30;;;;;;;41.40;21.30;;;;;;;-147.86;100.00;14661.43;104938;1262;72698;-59
2024/02/01 06:48:04;;;;;;;34.70;18.70;;;;;;;-147.86;100.00;16154.81;104841;1267;59747;-56
2024/02/01 06:53:23;;;;;;;35.70;19.80;;;;;;;-147.86;100.00;15534.38;105212;1261;73064;-57
2024/02/01 06:56:06;;;;;;;39.00;20.30;;;;;;;-147.86;100.00;17162.27;105260;1261;63241;-56
2024/02/01 06:59:11;;;;;;;42.40;21.50;;;;;;;-147.86;100.00;16256.02;105204;1264;72614;-55
2024/02/01 07:01:24;;;;;;;41.70;20.80;;;;;;;-147.86;100.00;16038.87;105165;1265;60779;-59
2024/02/01 07:04:14;;;;;;;48.30;21.60;;;;;;;-147.86;100.00;17902.48;105259;1265;59633;-57
2024/02/01 07:07:05;;;;;;;36.80;20.40;;;;;;;-147.86;100.00;16158.47;105209;1261;71770;-58
2024/02/01 07:59:26;;;;;;;44.50;23.20;;;;;;;-147.86;100.00;-8453.17;105179;1271;70981;-58
2024/02/01 08:02:23;;;;;;;39.10;22.40;;;;;;;-147.86;100.00;-8874.56;105178;1270;63103;-57
2024/02/01 08:07:48;;;;;;;39.50;21.90;;;;;;;-147.86;100.00;-13364.13;105197;1266;62915;-57
2024/02/01 08:10:19;;;;;;;44.60;22.70;;;;;;;-147.86;100.00;-14342.37;105276;1274;59214;-59
2024/02/01 08:12:48;;;;;;;43.20;21.80;;;;;;;-147.86;100.00;-15016.75;105246;1269;71230;-58
2024/02/01 08:15:20;;;;;;;42.90;22.90;;;;;;;-147.86;100.00;-15793.19;105303;1263;63487;-58
2024/02/01 08:17:49;;;;;;;41.40;22.60;;;;;;;-147.86;100.00;-16572.16;105235;1266;71770;-57
2024/02/01 08:20:21;;;;;;;41.80;23.40;;;;;;;-147.86;100.00;-16792.71;105535;1263;59762;-57
2024/02/01 08:22:49;;;;;;;45.40;23.50;;;;;;;-147.86;100.00;-17196.00;105501;1258;62225;-59
2024/02/01 08:25:16;;;;;;;43.10;23.90;;;;;;;-147.86;100.00;-17381.82;105505;1262;71753;-57
2024/02/01 08:27:54;;;;;;;50.10;24.70;;;;;;;-147.86;100.00;-17544.40;105661;1261;63232;-59
2024/02/01 08:30:26;;;;;;;45.70;23.10;;;;;;;-147.86;100.00;-17609.17;105705;1254;74781;-60
2024/02/01 08:33:02;;;;;;;42.10;22.10;;;;;;;-147.86;100.00;-17609.17;105659;1255;59785;-59
2024/02/01 08:35:36;;;;;;;41.90;21.80;;;;;;;-147.86;100.00;-17609.17;105691;1255;60571;-58
2024/02/01 08:38:04;;;;;;;41.50;22.30;;;;;;;-147.86;100.00;-17609.17;105693;1260;73214;-59
2024/02/01 08:40:33;;;;;;;36.70;21.60;;;;;;;-147.86;100.00;-17609.17;105711;1254;65123;-56
2024/02/01 08:43:01;;;;;;;35.90;20.60;;;;;;;-147.86;100.00;-17609.17;105679;1255;72965;-56
2024/02/01 08:45:29;;;;;;;34.70;21.00;;;;;;;-147.86;100.00;-17609.17;105670;1259;63122;-58
2024/02/01 08:48:02;;;;;;;33.10;19.50;;;;;;;-147.86;100.00;-17609.17;105668;1260;59662;-58
2024/02/01 08:50:42;;;;;;;40.10;21.70;;;;;;;-147.86;100.00;-17609.17;105622;1263;71873;-59
2024/02/01 08:53:11;;;;;;;40.80;21.80;;;;;;;-147.86;100.00;-17609.17;105644;1256;62592;-61
2024/02/01 08:55:41;;;;;;;36.90;20.50;;;;;;;-147.86;100.00;-17609.17;105680;1259;71463;-57
2024/02/01 08:58:08;;;;;;;40.70;20.80;;;;;;;-147.86;100.00;-17609.17;105639;1257;62771;-57
2024/02/01 09:00:42;;;;;;;34.40;20.60;;;;;;;-147.86;100.00;-17609.17;105613;1260;59820;-60
2024/02/01 09:03:19;;;;;;;45.70;21.00;;;;;;;-147.86;100.00;-17609.17;105651;1263;72513;-58
2024/02/01 09:05:49;;;;;;;36.60;20.90;;;;;;;-147.86;100.00;-17609.17;105655;1258;66478;-60
2024/02/01 09:08:24;;;;;;;35.70;21.30;;;;;;;-147.86;100.00;-17609.17;105625;1257;73598;-59
2024/02/01 09:11:00;;;;;;;34.80;20.00;;;;;;;-147.86;100.00;-17609.17;105649;1260;59768;-57
2024/02/01 09:13:30;;;;;;;39.00;22.20;;;;;;;-147.86;100.00;-17609.17;105647;1258;59841;-59
2024/02/01 09:15:58;;;;;;;43.90;24.10;;;;;;;-147.86;100.00;-17609.17;105637;1256;73226;-56
2024/02/01 09:18:26;;;;;;;46.10;24.80;;;;;;;-147.86;100.00;-17609.17;105632;1258;67061;-58
2024/02/01 09:20:54;;;;;;;45.60;24.30;;;;;;;-147.86;100.00;-17609.17;105596;1258;71401;-58
2024/02/01 09:23:22;;;;;;;44.00;23.40;;;;;;;-147.86;100.00;-17609.17;105586;1257;59778;-62
2024/02/01 09:25:50;;;;;;;45.50;23.40;;;;;;;-147.86;100.00;-17609.17;105672;1261;61028;-62
2024/02/01 09:28:18;;;;;;;43.20;23.10;;;;;;;-147.86;100.00;-17609.17;105649;1257;73176;-58
2024/02/01 09:30:46;;;;;;;44.30;22.40;;;;;;;-147.86;100.00;-17609.17;105628;1261;66440;-56
2024/02/01 09:33:19;;;;;;;39.40;21.30;;;;;;;-147.86;100.00;-17609.17;105613;1257;74936;-59
2024/02/01 09:35:47;;;;;;;38.70;20.70;;;;;;;-147.86;100.00;-17609.17;105627;1261;60563;-58
2024/02/01 09:38:17;;;;;;;35.20;21.20;;;;;;;-147.86;100.00;-17609.17;105604;1257;61433;-57
2024/02/01 09:40:47;;;;;;;35.70;21.10;;;;;;;-147.86;100.00;-17609.17;105694;1260;72868;-61
2024/02/01 09:43:21;;;;;;;35.00;21.10;;;;;;;-147.86;100.00;-17609.17;105659;1258;63312;-59
2024/02/01 09:45:52;;;;;;;35.70;21.70;;;;;;;-147.86;100.00;-17609.17;105612;1260;74923;-59
2024/02/01 09:48:20;;;;;;;42.20;21.90;;;;;;;-147.86;100.00;-17609.17;105580;1260;61849;-60
2024/02/01 09:50:51;;;;;;;34.10;19.60;;;;;;;-147.86;100.00;-17609.17;105599;1261;60304;-58
2024/02/01 09:53:28;;;;;;;36.40;20.20;;;;;;;-147.86;100.00;-17609.17;105655;1263;72987;-58
2024/02/01 09:56:00;;;;;;;33.00;19.50;;;;;;;-147.86;100.00;-17609.17;105601;1261;64325;-60
2024/02/01 09:58:29;;;;;;;34.50;19.80;;;;;;;-147.86;100.00;-17609.17;105675;1260;72840;-59
2024/02/01 10:00:56;;;;;;;38.40;21.90;;;;;;;-147.86;100.00;-17609.17;105636;1260;61521;-56
2024/02/01 10:03:27;;;;;;;34.70;20.40;;;;;;;-147.86;100.00;-17609.17;105452;1262;59800;-59
2024/02/01 10:05:56;;;;;;;37.20;20.20;;;;;;;-147.86;100.00;-17609.17;105442;1260;75287;-60
2024/02/01 10:08:25;;;;;;;37.30;20.60;;;;;;;-147.86;100.00;-17609.17;105513;1260;64716;-59
2024/02/01 10:10:53;;;;;;;36.80;21.30;;;;;;;-147.86;100.00;-17609.17;105606;1260;72243;-60
2024/02/01 10:13:30;;;;;;;35.80;20.70;;;;;;;-147.86;100.00;-17609.17;105605;1264;61690;-57
2024/02/01 10:16:00;;;;;;;36.40;22.40;;;;;;;-147.86;100.00;-17609.17;105627;1256;61911;-61
2024/02/01 10:18:29;;;;;;;42.50;22.40;;;;;;;-147.86;100.00;-17609.17;105541;1264;74854;-58
2024/02/01 10:21:00;;;;;;;39.70;21.10;;;;;;;-147.86;100.00;-17583.92;105607;1260;66522;-58
2024/02/01 10:23:29;;;;;;;33.30;19.20;;;;;;;-147.86;100.00;-17521.56;105648;1260;73055;-61
2024/02/01 10:25:58;;;;;;;33.70;19.50;;;;;;;-147.86;100.00;-17370.93;105636;1257;59756;-58
2024/02/01 10:28:33;;;;;;;38.50;20.80;;;;;;;-147.86;100.00;-17183.27;105615;1260;59637;-55
2024/02/01 10:31:02;;;;;;;36.60;21.20;;;;;;;-147.86;100.00;-17206.30;105633;1256;72688;-60
2024/02/01 10:33:31;;;;;;;33.90;20.00;;;;;;;-147.86;100.00;-16912.62;105660;1260;65698;-60
2024/02/01 10:36:00;;;;;;;30.90;19.00;;;;;;;-147.86;100.00;-16604.15;105670;1258;74785;-56
2024/02/01 10:38:28;;;;;;;34.80;20.10;;;;;;;-147.86;100.00;-16321.51;105620;1261;63078;-58
2024/02/01 10:41:11;;;;;;;35.40;21.10;;;;;;;-147.86;100.00;-16132.94;105667;1260;59720;-60
2024/02/01 10:43:42;;;;;;;38.10;20.90;;;;;;;-147.86;100.00;-16696.29;105622;1260;75233;-58
2024/02/01 10:46:12;;;;;;;39.40;20.40;;;;;;;-147.86;100.00;-16354.67;105673;1258;64833;-59
2024/02/01 10:48:43;;;;;;;35.10;21.30;;;;;;;-147.86;100.00;-16552.11;105653;1258;73815;-60
2024/02/01 10:51:11;;;;;;;31.80;19.70;;;;;;;-147.86;100.00;-16759.94;105627;1254;61762;-57
2024/02/01 10:53:43;;;;;;;32.40;19.60;;;;;;;-147.86;100.00;-16936.53;105586;1257;61917;-57
2024/02/01 10:56:16;;;;;;;34.70;20.70;;;;;;;-147.86;100.00;-17259.99;105647;1260;73063;-59
2024/02/01 10:58:45;;;;;;;35.50;19.90;;;;;;;-147.86;100.00;-17461.52;105647;1257;65050;-60
2024/02/01 11:01:18;;;;;;;39.60;22.40;;;;;;;-147.86;100.00;-17550.48;105616;1260;72879;-57
2024/02/01 11:03:50;;;;;;;31.40;20.10;;;;;;;-147.86;100.00;-17609.17;105597;1260;61091;-60
2024/02/01 11:06:20;;;;;;;33.90;20.70;;;;;;;-147.86;100.00;-17609.17;105613;1257;61072;-56
2024/02/01 11:08:51;;;;;;;38.80;21.10;;;;;;;-147.86;100.00;-17609.17;105622;1260;75399;-61
2024/02/01 11:11:27;;;;;;;36.30;21.00;;;;;;;-147.86;100.00;-17609.17;105642;1260;65668;-60
2024/02/01 11:14:06;;;;;;;36.00;20.70;;;;;;;-147.86;100.00;-17609.17;105672;1257;74883;-61
2024/02/01 11:16:39;;;;;;;38.30;22.30;;;;;;;-147.86;100.00;-17609.17;105682;1261;60737;-58
2024/02/01 11:19:11;;;;;;;39.70;21.30;;;;;;;-147.86;100.00;-17609.17;105882;1251;60076;-59
2024/02/01 11:21:50;;;;;;;31.80;18.40;;;;;;;-147.86;100.00;-17609.17;105940;1251;74151;-56
2024/02/01 11:24:41;;;;;;;34.60;21.50;;;;;;;-147.86;100.00;-17609.17;105934;1256;63473;-61
2024/02/01 11:27:20;;;;;;;36.40;22.30;;;;;;;-147.86;100.00;-17609.17;105926;1251;74811;-56
2024/02/01 11:29:50;;;;;;;36.30;22.10;;;;;;;-147.86;100.00;-17609.17;105919;1257;59727;-57
2024/02/01 11:32:24;;;;;;;36.80;22.50;;;;;;;-147.86;100.00;-17609.17;105698;1257;59746;-58
2024/02/01 11:34:55;;;;;;;33.50;20.50;;;;;;;-147.86;100.00;-17600.79;105924;1251;73323;-58
2024/02/01 11:37:24;;;;;;;37.70;21.30;;;;;;;-147.86;100.00;-17601.55;105906;1256;68849;-59
2024/02/01 11:39:56;;;;;;;37.40;22.50;;;;;;;-147.86;100.00;-17595.87;105968;1257;73896;-57
2024/02/01 11:42:24;;;;;;;37.40;22.30;;;;;;;-147.86;100.00;-17563.97;105900;1254;61054;-61
2024/02/01 11:45:03;;;;;;;42.00;22.80;;;;;;;-147.86;100.00;-17549.61;105979;1251;62722;-57
2024/02/01 11:47:33;;;;;;;37.20;21.90;;;;;;;-147.86;100.00;-17478.39;105910;1256;73249;-56
2024/02/01 11:50:02;;;;;;;35.80;21.50;;;;;;;-147.86;100.00;-17378.64;105892;1257;64245;-61
2024/02/01 11:52:58;;;;;;;38.10;23.30;;;;;;;-147.86;100.00;-17297.29;105903;1257;71933;-60
2024/02/01 11:55:29;;;;;;;46.00;25.40;;;;;;;-147.86;100.00;-17532.26;105906;1257;59749;-58
2024/02/01 11:57:59;;;;;;;43.10;23.90;;;;;;;-147.86;100.00;-17432.61;105804;1257;62018;-57
2024/02/01 12:00:27;;;;;;;41.10;24.30;;;;;;;-147.86;100.00;-17393.67;105979;1251;73327;-56
2024/02/01 12:03:15;;;;;;;49.60;24.40;;;;;;;-147.86;100.00;-17545.37;105881;1257;63862;-58
2024/02/01 12:05:43;;;;;;;39.90;23.70;;;;;;;-147.86;100.00;-17370.15;105948;1255;74213;-59
2024/02/01 12:08:11;;;;;;;42.90;24.40;;;;;;;-147.86;100.00;-17210.26;105910;1251;62070;-58
2024/02/01 12:10:39;;;;;;;45.90;24.50;;;;;;;-147.86;100.00;-17021.73;105914;1257;60568;-59
2024/02/01 12:13:06;;;;;;;42.80;24.40;;;;;;;-147.86;100.00;-16936.14;105960;1251;73908;-58
2024/02/01 12:15:36;;;;;;;41.20;25.10;;;;;;;-147.86;100.00;-16897.97;105714;1251;65862;-58
2024/02/01 12:18:08;;;;;;;43.80;23.50;;;;;;;-147.86;100.00;-16953.10;105958;1257;72501;-59
2024/02/01 12:20:41;;;;;;;38.50;22.70;;;;;;;-147.86;100.00;-17072.62;105909;1257;60555;-57
2024/02/01 12:23:11;;;;;;;39.90;23.70;;;;;;;-147.86;100.00;-17215.66;105987;1256;61134;-60
2024/02/01 12:25:44;;;;;;;43.90;24.20;;;;;;;-147.86;100.00;-17269.25;105938;1257;74125;-60
2024/02/01 12:28:12;;;;;;;40.20;23.30;;;;;;;-147.86;100.00;-17291.51;105926;1257;64731;-59
2024/02/01 12:30:44;;;;;;;43.50;22.40;;;;;;;-147.86;100.00;-17139.71;105945;1251;75105;-60
2024/02/01 12:33:13;;;;;;;39.20;23.20;;;;;;;-147.86;100.00;-17124.96;105889;1257;61913;-58
2024/02/01 12:35:43;;;;;;;43.10;22.90;;;;;;;-147.86;100.00;-16847.84;106022;1251;61469;-60
2024/02/01 12:38:14;;;;;;;38.40;23.30;;;;;;;-147.86;100.00;-16503.51;105978;1251;73294;-61
2024/02/01 12:40:44;;;;;;;37.80;21.50;;;;;;;-147.86;100.00;-16236.66;105996;1257;66542;-58
2024/02/01 12:43:13;;;;;;;35.70;21.20;;;;;;;-147.86;100.00;-15974.80;105925;1256;75150;-61
2024/02/01 12:45:46;;;;;;;41.00;22.30;;;;;;;-147.86;100.00;-15477.28;105847;1254;61630;-59
2024/02/01 12:48:16;;;;;;;35.40;21.70;;;;;;;-147.86;100.00;-15416.31;105923;1257;60350;-59
2024/02/01 12:50:45;;;;;;;37.10;22.20;;;;;;;-147.86;100.00;-14836.94;105861;1251;76222;-59
2024/02/01 12:53:13;;;;;;;40.30;23.20;;;;;;;-147.86;100.00;-14405.63;105926;1257;64049;-55
2024/02/01 12:55:41;;;;;;;41.30;23.00;;;;;;;-147.86;100.00;-13943.79;105706;1251;72182;-56
2024/02/01 12:58:09;;;;;;;37.60;22.40;;;;;;;-147.86;100.00;-13687.97;105899;1254;60706;-59
2024/02/01 13:00:37;;;;;;;41.60;22.40;;;;;;;-147.86;100.00;-13466.08;105911;1251;61912;-59
2024/02/01 13:03:05;;;;;;;41.30;22.90;;;;;;;-147.86;100.00;-13305.93;105907;1257;75837;-60
2024/02/01 13:05:33;;;;;;;38.80;21.80;;;;;;;-147.86;100.00;-13163.13;105939;1257;64687;-59
2024/02/01 13:08:00;;;;;;;41.50;23.00;;;;;;;-147.86;100.00;-13019.18;105870;1251;72512;-61
2024/02/01 13:10:28;;;;;;;40.40;24.00;;;;;;;-147.86;100.00;-12815.78;105930;1254;60530;-58
2024/02/01 13:12:57;;;;;;;38.50;21.70;;;;;;;-147.86;100.00;-12643.63;105938;1251;60636;-58
2024/02/01 13:15:27;;;;;;;40.60;21.80;;;;;;;-147.86;100.00;-12720.04;105957;1257;75150;-59
2024/02/01 13:17:57;;;;;;;41.90;22.20;;;;;;;-147.86;100.00;-12545.58;105966;1251;65535;-61
2024/02/01 13:20:26;;;;;;;39.60;21.50;;;;;;;-147.86;100.00;-12506.19;105939;1251;73412;-56
2024/02/01 13:22:54;;;;;;;37.60;22.00;;;;;;;-147.86;100.00;-12295.82;105906;1255;60584;-61
2024/02/01 13:25:22;;;;;;;37.40;21.90;;;;;;;-147.86;100.00;-12081.21;105949;1251;62019;-59
2024/02/01 13:27:52;;;;;;;34.50;20.90;;;;;;;-147.86;100.00;-12022.52;105895;1251;74060;-59
2024/02/01 13:30:22;;;;;;;36.30;21.10;;;;;;;-147.86;100.00;-12048.75;105958;1251;65514;-57
2024/02/01 13:32:51;;;;;;;37.80;21.00;;;;;;;-147.86;100.00;-11867.30;105904;1251;73108;-60
2024/02/01 13:35:20;;;;;;;37.40;20.40;;;;;;;-147.86;100.00;-11617.12;105896;1257;62382;-58
2024/02/01 13:37:51;;;;;;;35.70;21.10;;;;;;;-147.86;100.00;-11272.33;105921;1251;60479;-58
2024/02/01 13:40:20;;;;;;;33.40;20.40;;;;;;;-147.86;100.00;-11114.38;105931;1257;73474;-58
2024/02/01 13:42:47;;;;;;;41.70;22.50;;;;;;;-147.86;100.00;-10758.37;105964;1257;64302;-57
2024/02/01 13:45:16;;;;;;;36.40;21.90;;;;;;;-147.86;100.00;-10495.38;105902;1255;71688;-57
2024/02/01 13:47:49;;;;;;;36.80;20.70;;;;;;;-147.86;100.00;-10464.83;106004;1251;60427;-60
2024/02/01 13:50:21;;;;;;;40.10;22.80;;;;;;;-147.86;100.00;-10616.54;105926;1251;62266;-57
2024/02/01 13:52:54;;;;;;;36.40;21.60;;;;;;;-147.86;100.00;-9917.16;105916;1256;75835;-58
2024/02/01 13:55:25;;;;;;;39.60;22.60;;;;;;;-147.86;100.00;-9869.99;105957;1251;65522;-58
2024/02/01 13:57:54;;;;;;;37.90;21.20;;;;;;;-147.86;100.00;-9498.77;105887;1251;72771;-59
2024/02/01 14:00:22;;;;;;;37.20;20.90;;;;;;;-147.86;100.00;-8894.20;106008;1257;62771;-59
2024/02/01 14:02:51;;;;;;;36.90;21.00;;;;;;;-147.86;100.00;-8487.33;105959;1257;60988;-57